sensor_id;sensor_type;location;lat;lon;timestamp;P1;durP1;ratioP1;P2;durP2;ratioP2
73569;SDS011;61850;54.980;73.298;2022-07-10T00:13:49;9.00;;;6.30;;
73569;SDS011;61850;54.980;73.298;2022-07-10T00:16:25;8.02;;;6.68;;
73569;SDS011;61850;54.980;73.298;2022-07-10T00:42:56;9.70;;;6.32;;
73569;SDS011;61850;54.980;73.298;2022-07-10T00:45:27;10.82;;;6.50;;
73569;SDS011;61850;54.980;73.298;2022-07-10T00:47:53;7.55;;;6.30;;
73569;SDS011;61850;54.980;73.298;2022-07-10T00:50:20;11.13;;;6.63;;
73569;SDS011;61850;54.980;73.298;2022-07-10T00:52:46;9.20;;;6.43;;
73569;SDS011;61850;54.980;73.298;2022-07-10T00:55:22;11.13;;;6.75;;
73569;SDS011;61850;54.980;73.298;2022-07-10T00:57:58;10.05;;;6.55;;
73569;SDS011;61850;54.980;73.298;2022-07-10T01:00:36;8.48;;;6.45;;
73569;SDS011;61850;54.980;73.298;2022-07-10T01:03:03;8.25;;;6.43;;
73569;SDS011;61850;54.980;73.298;2022-07-10T01:05:40;8.45;;;6.55;;
73569;SDS011;61850;54.980;73.298;2022-07-10T01:08:12;7.75;;;6.18;;
73569;SDS011;61850;54.980;73.298;2022-07-10T01:10:38;14.30;;;7.00;;
73569;SDS011;61850;54.980;73.298;2022-07-10T01:13:05;8.95;;;6.68;;
73569;SDS011;61850;54.980;73.298;2022-07-10T01:15:45;9.07;;;6.03;;
73569;SDS011;61850;54.980;73.298;2022-07-10T01:18:12;9.57;;;6.50;;
73569;SDS011;61850;54.980;73.298;2022-07-10T01:20:39;8.68;;;6.68;;
73569;SDS011;61850;54.980;73.298;2022-07-10T01:50:36;10.10;;;6.90;;
73569;SDS011;61850;54.980;73.298;2022-07-10T01:53:12;9.80;;;6.50;;
73569;SDS011;61850;54.980;73.298;2022-07-10T01:55:38;11.38;;;6.68;;
73569;SDS011;61850;54.980;73.298;2022-07-10T01:58:04;13.15;;;7.10;;
73569;SDS011;61850;54.980;73.298;2022-07-10T02:00:36;9.23;;;6.85;;
73569;SDS011;61850;54.980;73.298;2022-07-10T02:03:03;9.68;;;6.40;;
73569;SDS011;61850;54.980;73.298;2022-07-10T02:05:55;10.13;;;7.00;;
73569;SDS011;61850;54.980;73.298;2022-07-10T02:08:21;9.07;;;6.95;;
73569;SDS011;61850;54.980;73.298;2022-07-10T02:10:58;12.43;;;7.15;;
73569;SDS011;61850;54.980;73.298;2022-07-10T02:13:24;9.38;;;7.40;;
73569;SDS011;61850;54.980;73.298;2022-07-10T02:15:53;11.75;;;6.75;;
73569;SDS011;61850;54.980;73.298;2022-07-10T02:18:20;12.88;;;7.10;;
73569;SDS011;61850;54.980;73.298;2022-07-10T02:20:46;9.05;;;7.10;;
73569;SDS011;61850;54.980;73.298;2022-07-10T02:23:17;11.35;;;7.10;;
73569;SDS011;61850;54.980;73.298;2022-07-10T02:25:45;9.18;;;7.25;;
73569;SDS011;61850;54.980;73.298;2022-07-10T02:28:12;12.40;;;7.00;;
73569;SDS011;61850;54.980;73.298;2022-07-10T02:30:38;11.45;;;7.20;;
73569;SDS011;61850;54.980;73.298;2022-07-10T02:33:05;10.13;;;6.90;;
73569;SDS011;61850;54.980;73.298;2022-07-10T02:35:34;9.93;;;6.80;;
73569;SDS011;61850;54.980;73.298;2022-07-10T02:38:00;10.32;;;6.75;;
73569;SDS011;61850;54.980;73.298;2022-07-10T02:40:26;9.02;;;6.85;;
73569;SDS011;61850;54.980;73.298;2022-07-10T02:42:52;12.48;;;6.95;;
73569;SDS011;61850;54.980;73.298;2022-07-10T02:45:18;9.68;;;7.32;;
73569;SDS011;61850;54.980;73.298;2022-07-10T03:15:17;16.63;;;7.72;;
73569;SDS011;61850;54.980;73.298;2022-07-10T03:20:38;13.48;;;7.40;;
73569;SDS011;61850;54.980;73.298;2022-07-10T03:23:04;16.65;;;7.75;;
73569;SDS011;61850;54.980;73.298;2022-07-10T07:34:05;7.72;;;5.40;;
73569;SDS011;61850;54.980;73.298;2022-07-10T07:42:36;7.20;;;5.37;;
73569;SDS011;61850;54.980;73.298;2022-07-10T07:46:07;7.13;;;5.47;;
73569;SDS011;61850;54.980;73.298;2022-07-10T07:49:34;9.18;;;5.63;;
73569;SDS011;61850;54.980;73.298;2022-07-10T07:53:46;5.95;;;5.00;;
73569;SDS011;61850;54.980;73.298;2022-07-10T07:57:41;7.78;;;5.30;;
73569;SDS011;61850;54.980;73.298;2022-07-10T08:02:49;7.95;;;5.28;;
73569;SDS011;61850;54.980;73.298;2022-07-10T08:05:16;7.07;;;5.30;;
73569;SDS011;61850;54.980;73.298;2022-07-10T08:07:45;7.07;;;5.68;;
73569;SDS011;61850;54.980;73.298;2022-07-10T08:10:14;6.47;;;5.22;;
73569;SDS011;61850;54.980;73.298;2022-07-10T08:21:41;8.75;;;5.57;;
73569;SDS011;61850;54.980;73.298;2022-07-10T08:24:18;9.18;;;5.40;;
73569;SDS011;61850;54.980;73.298;2022-07-10T08:26:44;8.55;;;5.40;;
73569;SDS011;61850;54.980;73.298;2022-07-10T08:29:30;7.47;;;6.07;;
73569;SDS011;61850;54.980;73.298;2022-07-10T08:31:56;6.80;;;5.20;;
73569;SDS011;61850;54.980;73.298;2022-07-10T08:34:27;7.07;;;5.20;;
73569;SDS011;61850;54.980;73.298;2022-07-10T08:37:03;6.68;;;5.25;;
73569;SDS011;61850;54.980;73.298;2022-07-10T08:39:29;6.80;;;5.30;;
73569;SDS011;61850;54.980;73.298;2022-07-10T08:51:04;9.25;;;5.20;;
73569;SDS011;61850;54.980;73.298;2022-07-10T08:53:35;5.65;;;5.05;;
73569;SDS011;61850;54.980;73.298;2022-07-10T10:10:05;6.90;;;4.70;;
73569;SDS011;61850;54.980;73.298;2022-07-10T10:12:40;5.50;;;4.90;;
73569;SDS011;61850;54.980;73.298;2022-07-10T10:15:20;7.80;;;5.18;;
73569;SDS011;61850;54.980;73.298;2022-07-10T10:17:50;7.68;;;5.20;;
73569;SDS011;61850;54.980;73.298;2022-07-10T10:20:18;6.25;;;4.80;;
73569;SDS011;61850;54.980;73.298;2022-07-10T10:23:11;7.22;;;4.65;;
73569;SDS011;61850;54.980;73.298;2022-07-10T10:25:39;7.60;;;5.05;;
73569;SDS011;61850;54.980;73.298;2022-07-10T10:28:07;7.30;;;5.35;;
73569;SDS011;61850;54.980;73.298;2022-07-10T10:30:38;7.68;;;5.20;;
73569;SDS011;61850;54.980;73.298;2022-07-10T10:36:08;8.20;;;5.25;;
73569;SDS011;61850;54.980;73.298;2022-07-10T10:49:25;8.48;;;5.47;;
73569;SDS011;61850;54.980;73.298;2022-07-10T10:58:17;9.43;;;5.03;;
73569;SDS011;61850;54.980;73.298;2022-07-10T11:03:40;7.13;;;5.00;;
73569;SDS011;61850;54.980;73.298;2022-07-10T11:13:13;9.65;;;4.70;;
73569;SDS011;61850;54.980;73.298;2022-07-10T11:18:53;6.53;;;4.53;;
73569;SDS011;61850;54.980;73.298;2022-07-10T11:36:32;6.30;;;4.25;;
73569;SDS011;61850;54.980;73.298;2022-07-10T11:38:59;5.95;;;4.82;;
73569;SDS011;61850;54.980;73.298;2022-07-10T11:47:39;8.80;;;4.80;;
73569;SDS011;61850;54.980;73.298;2022-07-10T11:50:06;6.22;;;5.22;;
73569;SDS011;61850;54.980;73.298;2022-07-10T11:52:35;6.70;;;4.68;;
73569;SDS011;61850;54.980;73.298;2022-07-10T11:55:18;6.20;;;4.70;;
73569;SDS011;61850;54.980;73.298;2022-07-10T12:31:10;6.15;;;4.45;;
73569;SDS011;61850;54.980;73.298;2022-07-10T12:33:52;8.52;;;5.00;;
73569;SDS011;61850;54.980;73.298;2022-07-10T12:36:20;7.28;;;5.45;;
73569;SDS011;61850;54.980;73.298;2022-07-10T12:38:54;7.00;;;4.47;;
73569;SDS011;61850;54.980;73.298;2022-07-10T12:56:37;7.22;;;4.88;;
73569;SDS011;61850;54.980;73.298;2022-07-10T12:59:05;5.70;;;4.63;;
73569;SDS011;61850;54.980;73.298;2022-07-10T13:04:54;8.05;;;4.53;;
73569;SDS011;61850;54.980;73.298;2022-07-10T13:07:31;6.22;;;4.80;;
73569;SDS011;61850;54.980;73.298;2022-07-10T13:10:05;5.75;;;4.55;;
73569;SDS011;61850;54.980;73.298;2022-07-10T13:12:33;7.55;;;5.05;;
73569;SDS011;61850;54.980;73.298;2022-07-10T13:15:02;8.30;;;4.85;;
73569;SDS011;61850;54.980;73.298;2022-07-10T13:17:29;7.20;;;4.93;;
73569;SDS011;61850;54.980;73.298;2022-07-10T13:19:55;5.45;;;4.90;;
73569;SDS011;61850;54.980;73.298;2022-07-10T13:22:22;9.23;;;4.95;;
73569;SDS011;61850;54.980;73.298;2022-07-10T13:24:58;5.80;;;4.75;;
73569;SDS011;61850;54.980;73.298;2022-07-10T13:27:30;7.32;;;4.57;;
73569;SDS011;61850;54.980;73.298;2022-07-10T13:30:07;5.60;;;4.90;;
73569;SDS011;61850;54.980;73.298;2022-07-10T13:32:34;7.00;;;4.90;;
73569;SDS011;61850;54.980;73.298;2022-07-10T13:35:00;5.28;;;4.55;;
73569;SDS011;61850;54.980;73.298;2022-07-10T13:38:05;6.97;;;4.97;;
73569;SDS011;61850;54.980;73.298;2022-07-10T13:40:33;7.60;;;4.90;;
73569;SDS011;61850;54.980;73.298;2022-07-10T13:43:01;8.07;;;5.07;;
73569;SDS011;61850;54.980;73.298;2022-07-10T13:45:39;5.93;;;4.88;;
73569;SDS011;61850;54.980;73.298;2022-07-10T13:48:15;6.28;;;5.13;;
73569;SDS011;61850;54.980;73.298;2022-07-10T13:50:52;8.50;;;4.88;;
73569;SDS011;61850;54.980;73.298;2022-07-10T13:53:18;8.00;;;4.70;;
73569;SDS011;61850;54.980;73.298;2022-07-10T13:55:50;7.32;;;4.72;;
73569;SDS011;61850;54.980;73.298;2022-07-10T13:58:20;6.55;;;4.82;;
73569;SDS011;61850;54.980;73.298;2022-07-10T14:00:47;7.63;;;5.10;;
73569;SDS011;61850;54.980;73.298;2022-07-10T14:03:18;7.32;;;5.30;;
73569;SDS011;61850;54.980;73.298;2022-07-10T14:05:50;8.13;;;5.20;;
73569;SDS011;61850;54.980;73.298;2022-07-10T14:08:16;6.47;;;5.22;;
73569;SDS011;61850;54.980;73.298;2022-07-10T14:10:43;6.15;;;4.95;;
73569;SDS011;61850;54.980;73.298;2022-07-10T14:13:13;7.47;;;5.60;;
73569;SDS011;61850;54.980;73.298;2022-07-10T14:15:39;6.13;;;5.13;;
73569;SDS011;61850;54.980;73.298;2022-07-10T14:18:15;7.45;;;5.63;;
73569;SDS011;61850;54.980;73.298;2022-07-10T14:21:01;7.60;;;6.22;;
73569;SDS011;61850;54.980;73.298;2022-07-10T14:23:30;8.93;;;6.15;;
73569;SDS011;61850;54.980;73.298;2022-07-10T14:25:59;9.10;;;5.90;;
73569;SDS011;61850;54.980;73.298;2022-07-10T14:28:30;8.55;;;5.70;;
73569;SDS011;61850;54.980;73.298;2022-07-10T14:30:57;9.70;;;6.03;;
73569;SDS011;61850;54.980;73.298;2022-07-10T14:33:38;6.75;;;5.60;;
73569;SDS011;61850;54.980;73.298;2022-07-10T14:36:13;9.30;;;5.80;;
73569;SDS011;61850;54.980;73.298;2022-07-10T14:38:54;10.52;;;5.78;;
73569;SDS011;61850;54.980;73.298;2022-07-10T14:42:00;7.75;;;5.72;;
73569;SDS011;61850;54.980;73.298;2022-07-10T14:44:43;7.68;;;5.88;;
73569;SDS011;61850;54.980;73.298;2022-07-10T14:47:25;8.68;;;6.65;;
73569;SDS011;61850;54.980;73.298;2022-07-10T14:53:17;11.27;;;6.03;;
73569;SDS011;61850;54.980;73.298;2022-07-10T15:21:14;8.38;;;5.60;;
73569;SDS011;61850;54.980;73.298;2022-07-10T15:54:02;13.63;;;6.20;;
73569;SDS011;61850;54.980;73.298;2022-07-10T15:59:40;14.27;;;6.50;;
73569;SDS011;61850;54.980;73.298;2022-07-10T16:02:06;8.73;;;6.32;;
73569;SDS011;61850;54.980;73.298;2022-07-10T16:04:33;9.95;;;6.50;;
73569;SDS011;61850;54.980;73.298;2022-07-10T16:07:09;8.43;;;6.32;;
73569;SDS011;61850;54.980;73.298;2022-07-10T16:09:45;10.60;;;6.72;;
73569;SDS011;61850;54.980;73.298;2022-07-10T16:12:11;7.50;;;6.15;;
73569;SDS011;61850;54.980;73.298;2022-07-10T16:14:38;11.80;;;6.20;;
73569;SDS011;61850;54.980;73.298;2022-07-10T16:17:04;9.50;;;6.57;;
73569;SDS011;61850;54.980;73.298;2022-07-10T16:19:30;9.30;;;6.43;;
73569;SDS011;61850;54.980;73.298;2022-07-10T16:22:02;9.77;;;6.60;;
73569;SDS011;61850;54.980;73.298;2022-07-10T16:33:38;9.15;;;6.35;;
73569;SDS011;61850;54.980;73.298;2022-07-10T16:36:05;9.40;;;6.22;;
73569;SDS011;61850;54.980;73.298;2022-07-10T16:38:33;8.82;;;6.57;;
73569;SDS011;61850;54.980;73.298;2022-07-10T16:40:59;9.55;;;7.03;;
73569;SDS011;61850;54.980;73.298;2022-07-10T16:43:26;10.15;;;6.32;;
73569;SDS011;61850;54.980;73.298;2022-07-10T16:45:55;7.80;;;6.28;;
73569;SDS011;61850;54.980;73.298;2022-07-10T16:51:24;7.82;;;6.20;;
73569;SDS011;61850;54.980;73.298;2022-07-10T16:53:51;9.13;;;6.53;;
73569;SDS011;61850;54.980;73.298;2022-07-10T16:56:29;9.70;;;6.57;;
73569;SDS011;61850;54.980;73.298;2022-07-10T16:58:55;9.57;;;6.47;;
73569;SDS011;61850;54.980;73.298;2022-07-10T17:01:21;7.53;;;6.28;;
73569;SDS011;61850;54.980;73.298;2022-07-10T17:03:48;9.43;;;6.70;;
73569;SDS011;61850;54.980;73.298;2022-07-10T17:06:14;10.98;;;6.63;;
73569;SDS011;61850;54.980;73.298;2022-07-10T17:08:40;9.95;;;6.65;;
73569;SDS011;61850;54.980;73.298;2022-07-10T17:20:15;9.25;;;6.80;;
73569;SDS011;61850;54.980;73.298;2022-07-10T17:22:41;8.30;;;7.28;;
73569;SDS011;61850;54.980;73.298;2022-07-10T17:25:14;8.40;;;6.80;;
73569;SDS011;61850;54.980;73.298;2022-07-10T17:27:40;11.35;;;6.80;;
73569;SDS011;61850;54.980;73.298;2022-07-10T17:30:06;11.75;;;7.47;;
73569;SDS011;61850;54.980;73.298;2022-07-10T17:32:44;7.90;;;6.80;;
73569;SDS011;61850;54.980;73.298;2022-07-10T17:35:14;7.63;;;6.68;;
73569;SDS011;61850;54.980;73.298;2022-07-10T17:37:40;8.85;;;6.50;;
73569;SDS011;61850;54.980;73.298;2022-07-10T17:40:19;10.65;;;6.90;;
73569;SDS011;61850;54.980;73.298;2022-07-10T17:42:56;9.45;;;6.82;;
73569;SDS011;61850;54.980;73.298;2022-07-10T17:45:22;9.77;;;6.95;;
73569;SDS011;61850;54.980;73.298;2022-07-10T17:47:49;8.38;;;6.80;;
73569;SDS011;61850;54.980;73.298;2022-07-10T17:50:15;7.93;;;7.13;;
73569;SDS011;61850;54.980;73.298;2022-07-10T17:52:42;9.45;;;7.00;;
73569;SDS011;61850;54.980;73.298;2022-07-10T17:55:09;8.45;;;6.93;;
73569;SDS011;61850;54.980;73.298;2022-07-10T18:00:44;11.43;;;6.80;;
73569;SDS011;61850;54.980;73.298;2022-07-10T18:03:10;9.23;;;6.68;;
73569;SDS011;61850;54.980;73.298;2022-07-10T18:05:36;10.95;;;7.00;;
73569;SDS011;61850;54.980;73.298;2022-07-10T18:08:03;8.40;;;6.63;;
73569;SDS011;61850;54.980;73.298;2022-07-10T18:13:35;7.43;;;6.38;;
73569;SDS011;61850;54.980;73.298;2022-07-10T18:19:03;10.57;;;6.63;;
73569;SDS011;61850;54.980;73.298;2022-07-10T18:21:40;11.07;;;6.63;;
73569;SDS011;61850;54.980;73.298;2022-07-10T18:24:06;8.60;;;6.63;;
73569;SDS011;61850;54.980;73.298;2022-07-10T18:26:32;11.90;;;6.95;;
73569;SDS011;61850;54.980;73.298;2022-07-10T18:28:59;13.27;;;7.50;;
73569;SDS011;61850;54.980;73.298;2022-07-10T18:31:26;11.05;;;7.25;;
73569;SDS011;61850;54.980;73.298;2022-07-10T18:33:52;12.98;;;7.28;;
73569;SDS011;61850;54.980;73.298;2022-07-10T18:36:37;15.07;;;7.35;;
73569;SDS011;61850;54.980;73.298;2022-07-10T18:45:04;11.32;;;6.78;;
73569;SDS011;61850;54.980;73.298;2022-07-10T18:53:40;8.85;;;7.00;;
73569;SDS011;61850;54.980;73.298;2022-07-10T18:56:08;9.00;;;7.10;;
73569;SDS011;61850;54.980;73.298;2022-07-10T18:58:34;9.10;;;7.15;;
73569;SDS011;61850;54.980;73.298;2022-07-10T19:01:01;9.77;;;7.40;;
73569;SDS011;61850;54.980;73.298;2022-07-10T19:03:27;8.57;;;7.47;;
73569;SDS011;61850;54.980;73.298;2022-07-10T19:05:57;10.43;;;7.35;;
73569;SDS011;61850;54.980;73.298;2022-07-10T19:08:23;11.13;;;7.43;;
73569;SDS011;61850;54.980;73.298;2022-07-10T19:10:54;9.05;;;6.82;;
73569;SDS011;61850;54.980;73.298;2022-07-10T19:13:26;10.35;;;7.60;;
73569;SDS011;61850;54.980;73.298;2022-07-10T19:15:52;8.70;;;7.20;;
73569;SDS011;61850;54.980;73.298;2022-07-10T19:18:19;11.00;;;7.63;;
73569;SDS011;61850;54.980;73.298;2022-07-10T19:20:51;8.30;;;6.93;;
73569;SDS011;61850;54.980;73.298;2022-07-10T19:23:17;9.15;;;7.50;;
73569;SDS011;61850;54.980;73.298;2022-07-10T19:25:48;9.68;;;7.63;;
73569;SDS011;61850;54.980;73.298;2022-07-10T19:28:14;10.90;;;7.22;;
73569;SDS011;61850;54.980;73.298;2022-07-10T19:30:40;16.67;;;8.85;;
73569;SDS011;61850;54.980;73.298;2022-07-10T19:33:08;11.27;;;8.25;;
73569;SDS011;61850;54.980;73.298;2022-07-10T19:35:35;10.20;;;7.60;;
73569;SDS011;61850;54.980;73.298;2022-07-10T19:38:01;9.80;;;7.50;;
73569;SDS011;61850;54.980;73.298;2022-07-10T19:40:27;11.27;;;8.10;;
73569;SDS011;61850;54.980;73.298;2022-07-10T19:42:56;10.18;;;7.22;;
73569;SDS011;61850;54.980;73.298;2022-07-10T19:45:22;9.93;;;7.50;;
73569;SDS011;61850;54.980;73.298;2022-07-10T19:47:58;9.43;;;7.65;;
73569;SDS011;61850;54.980;73.298;2022-07-10T19:50:25;12.05;;;7.97;;
73569;SDS011;61850;54.980;73.298;2022-07-10T19:52:51;10.27;;;7.78;;
73569;SDS011;61850;54.980;73.298;2022-07-10T19:55:17;8.90;;;7.63;;
73569;SDS011;61850;54.980;73.298;2022-07-10T19:57:44;8.82;;;7.53;;
73569;SDS011;61850;54.980;73.298;2022-07-10T20:00:20;13.15;;;7.35;;
73569;SDS011;61850;54.980;73.298;2022-07-10T20:02:48;9.50;;;7.65;;
73569;SDS011;61850;54.980;73.298;2022-07-10T20:05:19;9.65;;;7.80;;
73569;SDS011;61850;54.980;73.298;2022-07-10T20:07:47;11.65;;;7.63;;
73569;SDS011;61850;54.980;73.298;2022-07-10T20:10:13;8.63;;;7.72;;
73569;SDS011;61850;54.980;73.298;2022-07-10T20:12:40;10.65;;;7.63;;
73569;SDS011;61850;54.980;73.298;2022-07-10T20:15:11;9.40;;;7.53;;
73569;SDS011;61850;54.980;73.298;2022-07-10T20:17:47;9.40;;;7.45;;
73569;SDS011;61850;54.980;73.298;2022-07-10T20:20:23;9.38;;;7.50;;
73569;SDS011;61850;54.980;73.298;2022-07-10T20:22:59;9.80;;;7.20;;
73569;SDS011;61850;54.980;73.298;2022-07-10T20:25:26;9.85;;;8.07;;
73569;SDS011;61850;54.980;73.298;2022-07-10T20:27:52;10.45;;;8.07;;
73569;SDS011;61850;54.980;73.298;2022-07-10T20:30:18;8.65;;;7.35;;
73569;SDS011;61850;54.980;73.298;2022-07-10T20:32:48;10.80;;;7.95;;
73569;SDS011;61850;54.980;73.298;2022-07-10T20:35:24;9.65;;;7.78;;
73569;SDS011;61850;54.980;73.298;2022-07-10T20:37:56;9.32;;;7.78;;
73569;SDS011;61850;54.980;73.298;2022-07-10T20:40:22;10.57;;;7.88;;
73569;SDS011;61850;54.980;73.298;2022-07-10T20:42:48;10.50;;;8.20;;
73569;SDS011;61850;54.980;73.298;2022-07-10T20:45:26;10.35;;;7.80;;
73569;SDS011;61850;54.980;73.298;2022-07-10T20:47:54;10.38;;;8.20;;
73569;SDS011;61850;54.980;73.298;2022-07-10T20:50:20;10.38;;;7.93;;
73569;SDS011;61850;54.980;73.298;2022-07-10T20:52:52;9.73;;;8.40;;
73569;SDS011;61850;54.980;73.298;2022-07-10T20:55:23;11.10;;;8.15;;
73569;SDS011;61850;54.980;73.298;2022-07-10T20:57:49;9.80;;;8.07;;
73569;SDS011;61850;54.980;73.298;2022-07-10T21:00:26;8.73;;;7.40;;
73569;SDS011;61850;54.980;73.298;2022-07-10T21:02:52;12.43;;;7.70;;
73569;SDS011;61850;54.980;73.298;2022-07-10T21:05:23;11.63;;;8.27;;
73569;SDS011;61850;54.980;73.298;2022-07-10T21:08:03;12.52;;;7.85;;
73569;SDS011;61850;54.980;73.298;2022-07-10T21:10:30;10.20;;;8.63;;
73569;SDS011;61850;54.980;73.298;2022-07-10T21:15:47;11.38;;;8.20;;
73569;SDS011;61850;54.980;73.298;2022-07-10T21:18:23;13.05;;;8.45;;
73569;SDS011;61850;54.980;73.298;2022-07-10T21:20:55;12.33;;;8.63;;
73569;SDS011;61850;54.980;73.298;2022-07-10T21:23:22;11.43;;;8.80;;
73569;SDS011;61850;54.980;73.298;2022-07-10T21:25:55;12.67;;;8.67;;
73569;SDS011;61850;54.980;73.298;2022-07-10T21:28:21;10.68;;;8.45;;
73569;SDS011;61850;54.980;73.298;2022-07-10T21:30:53;11.40;;;8.57;;
73569;SDS011;61850;54.980;73.298;2022-07-10T21:33:19;12.43;;;8.80;;
73569;SDS011;61850;54.980;73.298;2022-07-10T21:35:50;15.60;;;9.60;;
73569;SDS011;61850;54.980;73.298;2022-07-10T21:38:17;12.82;;;10.18;;
73569;SDS011;61850;54.980;73.298;2022-07-10T21:40:43;12.27;;;9.60;;
73569;SDS011;61850;54.980;73.298;2022-07-10T21:43:16;16.38;;;10.32;;
73569;SDS011;61850;54.980;73.298;2022-07-10T21:45:43;13.48;;;10.48;;
73569;SDS011;61850;54.980;73.298;2022-07-10T21:48:12;15.73;;;10.45;;
73569;SDS011;61850;54.980;73.298;2022-07-10T21:50:40;15.35;;;10.68;;
73569;SDS011;61850;54.980;73.298;2022-07-10T21:53:07;15.85;;;11.65;;
73569;SDS011;61850;54.980;73.298;2022-07-10T21:55:40;14.70;;;10.93;;
73569;SDS011;61850;54.980;73.298;2022-07-10T21:58:06;16.63;;;11.07;;
73569;SDS011;61850;54.980;73.298;2022-07-10T22:00:40;16.92;;;10.60;;
73569;SDS011;61850;54.980;73.298;2022-07-10T22:03:11;15.60;;;11.20;;
73569;SDS011;61850;54.980;73.298;2022-07-10T22:05:37;16.17;;;11.52;;
73569;SDS011;61850;54.980;73.298;2022-07-10T22:08:05;17.77;;;11.43;;
73569;SDS011;61850;54.980;73.298;2022-07-10T22:10:32;14.77;;;12.00;;
73569;SDS011;61850;54.980;73.298;2022-07-10T22:12:58;16.15;;;11.70;;
73569;SDS011;61850;54.980;73.298;2022-07-10T22:15:29;15.48;;;11.65;;
73569;SDS011;61850;54.980;73.298;2022-07-10T22:17:55;17.98;;;11.88;;
73569;SDS011;61850;54.980;73.298;2022-07-10T22:20:23;15.80;;;11.48;;
73569;SDS011;61850;54.980;73.298;2022-07-10T22:22:50;16.45;;;10.98;;
73569;SDS011;61850;54.980;73.298;2022-07-10T22:25:18;17.80;;;10.77;;
73569;SDS011;61850;54.980;73.298;2022-07-10T22:27:45;14.88;;;10.80;;
73569;SDS011;61850;54.980;73.298;2022-07-10T22:30:14;13.95;;;11.35;;
73569;SDS011;61850;54.980;73.298;2022-07-10T22:35:33;17.55;;;10.80;;
73569;SDS011;61850;54.980;73.298;2022-07-10T22:38:04;13.60;;;10.20;;
73569;SDS011;61850;54.980;73.298;2022-07-10T22:40:36;13.35;;;10.50;;
73569;SDS011;61850;54.980;73.298;2022-07-10T22:43:02;12.60;;;10.27;;
73569;SDS011;61850;54.980;73.298;2022-07-10T22:45:28;15.13;;;9.95;;
73569;SDS011;61850;54.980;73.298;2022-07-10T22:47:59;12.88;;;10.07;;
73569;SDS011;61850;54.980;73.298;2022-07-10T22:50:25;12.77;;;9.95;;
73569;SDS011;61850;54.980;73.298;2022-07-10T22:52:51;15.48;;;10.05;;
73569;SDS011;61850;54.980;73.298;2022-07-10T22:55:17;14.30;;;10.27;;
73569;SDS011;61850;54.980;73.298;2022-07-10T22:57:43;13.82;;;10.00;;
73569;SDS011;61850;54.980;73.298;2022-07-10T23:00:09;15.13;;;10.25;;
73569;SDS011;61850;54.980;73.298;2022-07-10T23:02:36;12.90;;;10.00;;
73569;SDS011;61850;54.980;73.298;2022-07-10T23:05:12;12.82;;;10.40;;
73569;SDS011;61850;54.980;73.298;2022-07-10T23:07:38;13.95;;;10.57;;
73569;SDS011;61850;54.980;73.298;2022-07-10T23:10:05;14.65;;;10.82;;
73569;SDS011;61850;54.980;73.298;2022-07-10T23:15:22;13.73;;;10.43;;
73569;SDS011;61850;54.980;73.298;2022-07-10T23:17:56;14.70;;;10.35;;
73569;SDS011;61850;54.980;73.298;2022-07-10T23:20:23;13.80;;;10.15;;
73569;SDS011;61850;54.980;73.298;2022-07-10T23:22:49;14.13;;;10.27;;
73569;SDS011;61850;54.980;73.298;2022-07-10T23:25:16;16.45;;;10.40;;
73569;SDS011;61850;54.980;73.298;2022-07-10T23:27:42;14.13;;;10.70;;
73569;SDS011;61850;54.980;73.298;2022-07-10T23:30:09;11.13;;;9.73;;
73569;SDS011;61850;54.980;73.298;2022-07-10T23:41:46;13.82;;;10.57;;
73569;SDS011;61850;54.980;73.298;2022-07-10T23:44:17;14.73;;;10.98;;
73569;SDS011;61850;54.980;73.298;2022-07-10T23:46:45;13.55;;;10.30;;
73569;SDS011;61850;54.980;73.298;2022-07-10T23:49:21;14.90;;;11.00;;
73569;SDS011;61850;54.980;73.298;2022-07-10T23:52:06;15.63;;;10.55;;
73569;SDS011;61850;54.980;73.298;2022-07-10T23:54:32;14.30;;;11.25;;
